createdAt,value
2017-11-01T00:00:39.043Z,7.8
2017-11-01T00:01:40.982Z,7.8
2017-11-01T00:02:42.970Z,7.9
2017-11-01T00:03:44.940Z,7.9
2017-11-01T00:04:46.925Z,7.9
2017-11-01T00:05:48.957Z,7.9
2017-11-01T00:06:50.876Z,7.8
2017-11-01T00:07:53.220Z,7.9
2017-11-01T00:08:55.167Z,7.9
2017-11-01T00:09:57.142Z,7.9
2017-11-01T00:10:59.115Z,7.9
2017-11-01T00:12:01.003Z,8
2017-11-01T00:13:02.994Z,8
2017-11-01T00:14:04.941Z,7.9
2017-11-01T00:15:06.962Z,7.9
2017-11-01T00:16:08.891Z,7.9
2017-11-01T00:17:10.814Z,7.9
2017-11-01T00:18:12.783Z,8
2017-11-01T00:19:14.997Z,7.9
2017-11-01T00:20:16.982Z,8
2017-11-01T00:21:18.952Z,7.9
2017-11-01T00:22:20.924Z,8
2017-11-01T00:23:22.907Z,8
2017-11-01T00:24:24.858Z,7.9
2017-11-01T00:25:26.757Z,8
2017-11-01T00:26:28.711Z,7.8
2017-11-01T00:27:30.667Z,7.8
2017-11-01T00:28:32.639Z,7.8
2017-11-01T00:29:34.573Z,7.8
2017-11-01T00:30:36.574Z,7.8
2017-11-01T00:31:38.466Z,7.9
2017-11-01T00:32:40.407Z,7.9
2017-11-01T00:33:42.448Z,7.9
2017-11-01T00:34:44.346Z,7.9
2017-11-01T00:35:46.360Z,7.8
2017-11-01T00:36:48.267Z,7.7
2017-11-01T00:37:50.133Z,7.7
2017-11-01T00:38:52.147Z,7.7
2017-11-01T00:39:54.360Z,7.8
2017-11-01T00:40:56.284Z,7.8
2017-11-01T00:41:58.297Z,7.7
2017-11-01T00:43:00.220Z,7.8
2017-11-01T00:44:02.529Z,7.8
2017-11-01T00:45:04.484Z,7.7
2017-11-01T00:46:06.389Z,7.7
2017-11-01T00:47:08.296Z,7.7
2017-11-01T00:48:10.321Z,7.7
2017-11-01T00:49:12.268Z,7.7
2017-11-01T00:50:14.208Z,7.8
2017-11-01T00:51:16.236Z,7.8
2017-11-01T00:52:18.183Z,7.7
2017-11-01T00:53:20.175Z,7.7
2017-11-01T00:54:22.401Z,7.7
2017-11-01T00:55:24.282Z,7.8
2017-11-01T00:56:26.189Z,7.8
2017-11-01T00:57:28.197Z,7.7
2017-11-01T00:58:30.315Z,7.7
2017-11-01T00:59:32.263Z,7.7
2017-11-01T01:00:34.186Z,7.7
2017-11-01T01:01:36.152Z,7.7
2017-11-01T01:02:38.052Z,7.7
2017-11-01T01:03:39.918Z,7.7
2017-11-01T01:04:41.838Z,7.7
2017-11-01T01:05:43.776Z,7.7
2017-11-01T01:06:45.830Z,7.6
2017-11-01T01:07:47.753Z,7.7
2017-11-01T01:08:49.720Z,7.7
2017-11-01T01:09:51.952Z,7.7
2017-11-01T01:10:53.846Z,7.7
2017-11-01T01:11:55.756Z,7.7
2017-11-01T01:12:57.714Z,7.7
2017-11-01T01:13:59.605Z,7.7
2017-11-01T01:15:01.588Z,7.7
2017-11-01T01:16:03.470Z,7.7
2017-11-01T01:17:05.394Z,7.7
2017-11-01T01:18:07.380Z,7.6
2017-11-01T01:19:09.317Z,7.6
2017-11-01T01:20:11.511Z,7.5
2017-11-01T01:21:13.642Z,7.6
2017-11-01T01:22:15.566Z,7.6
2017-11-01T01:23:17.495Z,7.5
2017-11-01T01:24:19.447Z,7.6
2017-11-01T01:25:21.590Z,7.6
2017-11-01T01:26:23.563Z,7.6
2017-11-01T01:27:25.568Z,7.5
2017-11-01T01:28:27.531Z,7.5
2017-11-01T01:29:29.636Z,7.5
2017-11-01T01:30:31.892Z,7.6
2017-11-01T01:31:33.845Z,7.6
2017-11-01T01:32:35.805Z,7.6
2017-11-01T01:33:37.790Z,7.6
2017-11-01T01:34:39.716Z,7.6
2017-11-01T01:35:42.120Z,7.6
2017-11-01T01:36:44.023Z,7.5
2017-11-01T01:37:45.948Z,7.6
2017-11-01T01:38:47.869Z,7.5
2017-11-01T01:39:49.788Z,7.7
2017-11-01T01:40:51.933Z,7.7
2017-11-01T01:41:53.932Z,7.5
2017-11-01T01:42:56.178Z,7.5
2017-11-01T01:43:58.111Z,7.5
2017-11-01T01:44:59.961Z,7.5
2017-11-01T01:46:01.988Z,7.5
2017-11-01T01:47:03.886Z,7.6
2017-11-01T01:48:05.797Z,7.6
2017-11-01T01:49:07.685Z,7.6
2017-11-01T01:50:09.650Z,7.8
2017-11-01T01:51:11.912Z,7.8
2017-11-01T01:52:13.901Z,7.7
2017-11-01T01:53:15.921Z,7.7
2017-11-01T01:54:17.984Z,7.7
2017-11-01T01:55:20.011Z,7.6
2017-11-01T01:56:22.301Z,7.6
2017-11-01T01:57:24.233Z,7.6
2017-11-01T01:58:26.220Z,7.7
2017-11-01T01:59:28.362Z,7.7
2017-11-01T02:00:30.265Z,7.7
2017-11-01T02:01:32.178Z,7.8
2017-11-01T02:02:34.095Z,7.7
2017-11-01T02:03:36.057Z,7.7
2017-11-01T02:04:38.224Z,7.7
2017-11-01T02:05:40.182Z,7.7
2017-11-01T02:06:42.235Z,7.7
2017-11-01T02:07:44.168Z,7.8
2017-11-01T02:08:46.113Z,7.7
2017-11-01T02:09:48.223Z,7.8
2017-11-01T02:10:50.219Z,7.8
2017-11-01T02:11:52.404Z,7.7
2017-11-01T02:12:54.358Z,7.7
2017-11-01T02:13:56.362Z,7.7
2017-11-01T02:14:58.270Z,7.7
2017-11-01T02:16:00.224Z,7.8
2017-11-01T02:17:02.421Z,7.8
2017-11-01T02:18:04.410Z,7.7
2017-11-01T02:19:06.319Z,7.7
2017-11-01T02:20:08.306Z,7.7
2017-11-01T02:21:10.536Z,7.8
2017-11-01T02:22:12.501Z,7.7
2017-11-01T02:23:14.370Z,7.7
2017-11-01T02:24:16.282Z,7.7
2017-11-01T02:25:18.234Z,7.7
2017-11-01T02:26:20.169Z,7.8
2017-11-01T02:27:22.158Z,7.7
2017-11-01T02:28:24.270Z,7.7
2017-11-01T02:29:26.298Z,7.7
2017-11-01T02:30:28.304Z,7.7
2017-11-01T02:31:30.289Z,7.7
2017-11-01T02:32:32.557Z,7.7
2017-11-01T02:33:34.506Z,7.7
2017-11-01T02:34:36.382Z,7.7
2017-11-01T02:35:38.269Z,7.7
2017-11-01T02:36:40.168Z,7.7
2017-11-01T02:37:42.120Z,7.7
2017-11-01T02:38:44.139Z,7.7
2017-11-01T02:39:46.037Z,7.6
2017-11-01T02:40:47.948Z,7.6
2017-11-01T02:41:49.921Z,7.6
2017-11-01T02:42:52.170Z,7.6
2017-11-01T02:43:54.222Z,7.7
2017-11-01T02:44:56.183Z,7.7
2017-11-01T02:45:58.082Z,7.7
2017-11-01T02:46:59.958Z,7.7
2017-11-01T02:48:01.909Z,7.7
2017-11-01T02:49:03.760Z,7.6
2017-11-01T02:50:05.656Z,7.6
2017-11-01T02:51:07.789Z,7.7
2017-11-01T02:52:10.061Z,7.7
2017-11-01T02:53:11.954Z,7.7
2017-11-01T02:54:13.879Z,7.6
2017-11-01T02:55:15.887Z,7.6
2017-11-01T02:56:17.815Z,7.7
2017-11-01T02:57:19.732Z,7.6
2017-11-01T02:58:21.862Z,7.7
2017-11-01T02:59:23.817Z,7.7
2017-11-01T03:00:25.797Z,7.7
2017-11-01T03:01:27.779Z,7.6
2017-11-01T03:02:29.912Z,7.6
2017-11-01T03:03:31.899Z,7.6
2017-11-01T03:04:33.816Z,7.7
2017-11-01T03:05:35.673Z,7.6
2017-11-01T03:06:37.577Z,7.7
2017-11-01T03:07:39.438Z,7.6
2017-11-01T03:08:41.598Z,7.7
2017-11-01T03:09:43.549Z,7.7
2017-11-01T03:10:45.608Z,7.6
2017-11-01T03:11:47.481Z,7.6
2017-11-01T03:12:49.453Z,7.6
2017-11-01T03:13:52.075Z,7.6
2017-11-01T03:14:54.024Z,7.6
2017-11-01T03:15:55.989Z,7.6
2017-11-01T03:16:57.937Z,7.6
2017-11-01T03:17:59.869Z,7.6
2017-11-01T03:19:02.249Z,7.5
2017-11-01T03:20:04.156Z,7.6
2017-11-01T03:21:06.068Z,7.6
2017-11-01T03:22:08.063Z,7.6
2017-11-01T03:23:10.103Z,7.6
2017-11-01T03:24:11.982Z,7.6
2017-11-01T03:25:13.931Z,7.6
2017-11-01T03:26:15.819Z,7.6
2017-11-01T03:27:17.756Z,7.7
2017-11-01T03:28:19.657Z,7.6
2017-11-01T03:29:21.685Z,7.6
2017-11-01T03:30:23.616Z,7.7
2017-11-01T03:31:25.500Z,7.6
2017-11-01T03:32:27.468Z,7.6
2017-11-01T03:33:29.432Z,7.5
2017-11-01T03:34:31.453Z,7.6
2017-11-01T03:35:33.410Z,7.7
2017-11-01T03:36:35.355Z,7.6
2017-11-01T03:37:37.311Z,7.6
2017-11-01T03:38:39.209Z,7.6
2017-11-01T03:39:41.303Z,7.6
2017-11-01T03:40:43.240Z,7.5
2017-11-01T03:41:45.177Z,7.6
2017-11-01T03:42:47.056Z,7.6
2017-11-01T03:43:48.992Z,7.5
2017-11-01T03:44:51.249Z,7.5
2017-11-01T03:45:53.375Z,7.6
2017-11-01T03:46:55.281Z,7.6
2017-11-01T03:47:57.249Z,7.6
2017-11-01T03:48:59.093Z,7.6
2017-11-01T03:50:01.427Z,7.6
2017-11-01T03:51:03.438Z,7.6
2017-11-01T03:52:05.475Z,7.6
2017-11-01T03:53:07.613Z,7.6
2017-11-01T03:54:09.557Z,7.6
2017-11-01T03:55:11.739Z,7.5
2017-11-01T03:56:13.613Z,7.6
2017-11-01T03:57:15.536Z,7.6
2017-11-01T03:58:17.473Z,7.6
2017-11-01T03:59:19.579Z,7.6
2017-11-01T04:00:21.985Z,7.6
2017-11-01T04:01:23.960Z,7.7
2017-11-01T04:02:25.940Z,7.6
2017-11-01T04:03:27.916Z,7.6
2017-11-01T04:04:29.851Z,7.6
2017-11-01T04:05:32.180Z,7.6
2017-11-01T04:06:34.161Z,7.7
2017-11-01T04:07:36.426Z,7.7
2017-11-01T04:08:38.350Z,7.6
2017-11-01T04:09:40.239Z,7.6
2017-11-01T04:10:42.314Z,7.5
2017-11-01T04:11:44.273Z,7.6
2017-11-01T04:12:46.435Z,7.7
2017-11-01T04:13:48.403Z,7.6
2017-11-01T04:14:50.413Z,7.6
2017-11-01T04:15:52.387Z,7.6
2017-11-01T04:16:54.428Z,7.6
2017-11-01T04:17:56.386Z,7.7
2017-11-01T04:18:58.354Z,7.7
2017-11-01T04:20:00.218Z,7.6
2017-11-01T04:21:02.540Z,7.7
2017-11-01T04:22:04.559Z,7.7
2017-11-01T04:23:06.608Z,7.7
2017-11-01T04:24:08.535Z,7.7
2017-11-01T04:25:10.503Z,7.6
2017-11-01T04:26:12.704Z,7.6
2017-11-01T04:27:14.674Z,7.6
2017-11-01T04:28:16.872Z,7.6
2017-11-01T04:29:18.817Z,7.7
2017-11-01T04:30:20.803Z,7.6
2017-11-01T04:31:23.004Z,7.6
2017-11-01T04:32:24.993Z,7.6
2017-11-01T04:33:26.955Z,7.6
2017-11-01T04:34:28.948Z,7.7
2017-11-01T04:35:30.987Z,7.7
2017-11-01T04:36:32.962Z,7.7
2017-11-01T04:37:34.915Z,7.7
2017-11-01T04:38:36.971Z,7.7
2017-11-01T04:39:38.909Z,7.7
2017-11-01T04:40:40.837Z,7.7
2017-11-01T04:41:43.038Z,7.7
2017-11-01T04:42:45.052Z,7.8
2017-11-01T04:43:47.116Z,7.8
2017-11-01T04:44:49.097Z,7.7
2017-11-01T04:45:51.080Z,7.7
2017-11-01T04:46:53.415Z,7.7
2017-11-01T04:47:55.308Z,7.8
2017-11-01T04:48:57.306Z,7.7
2017-11-01T04:49:59.279Z,7.7
2017-11-01T04:51:01.219Z,7.7
2017-11-01T04:52:03.315Z,7.7
2017-11-01T04:53:05.289Z,7.7
2017-11-01T04:54:07.285Z,7.8
2017-11-01T04:55:09.346Z,7.7
2017-11-01T04:56:11.325Z,7.7
2017-11-01T04:57:13.705Z,7.7
2017-11-01T04:58:15.787Z,7.7
2017-11-01T04:59:17.775Z,7.9
2017-11-01T05:00:19.833Z,7.8
2017-11-01T05:01:21.731Z,7.7
2017-11-01T05:02:23.718Z,7.8
2017-11-01T05:03:25.676Z,7.8
2017-11-01T05:04:27.703Z,7.8
2017-11-01T05:05:29.678Z,7.8
2017-11-01T05:06:31.662Z,7.8
2017-11-01T05:07:33.996Z,7.8
2017-11-01T05:08:35.982Z,7.8
2017-11-01T05:09:37.978Z,7.8
2017-11-01T05:10:40.195Z,7.8
2017-11-01T05:11:42.237Z,7.8
2017-11-01T05:12:44.291Z,7.8
2017-11-01T05:13:50.052Z,7.8
2017-11-01T05:14:52.199Z,7.9
2017-11-01T05:15:54.229Z,7.8
2017-11-01T05:16:56.200Z,7.8
2017-11-01T05:17:58.162Z,7.8
2017-11-01T05:19:00.087Z,7.9
2017-11-01T05:20:02.040Z,7.8
2017-11-01T05:21:04.115Z,7.8
2017-11-01T05:22:06.105Z,7.7
2017-11-01T05:23:08.144Z,7.9
2017-11-01T05:24:10.061Z,7.8
2017-11-01T05:25:12.077Z,7.8
2017-11-01T05:26:14.067Z,7.8
2017-11-01T05:27:15.997Z,7.8
2017-11-01T05:28:17.928Z,7.8
2017-11-01T05:29:19.811Z,7.8
2017-11-01T05:30:21.855Z,7.9
2017-11-01T05:31:23.831Z,7.9
2017-11-01T05:32:25.767Z,7.8
2017-11-01T05:33:27.778Z,7.9
2017-11-01T05:34:29.876Z,8
2017-11-01T05:35:31.794Z,7.8
2017-11-01T05:36:33.724Z,7.8
2017-11-01T05:37:35.714Z,7.9
2017-11-01T05:38:38.005Z,7.8
2017-11-01T05:39:39.934Z,7.8
2017-11-01T05:40:42.006Z,7.8
2017-11-01T05:41:44.097Z,7.9
2017-11-01T05:42:46.029Z,7.8
2017-11-01T05:43:48.302Z,7.8
2017-11-01T05:44:50.218Z,7.9
2017-11-01T05:45:52.262Z,7.8
2017-11-01T05:46:54.250Z,7.8
2017-11-01T05:47:56.151Z,7.8
2017-11-01T05:48:58.151Z,7.9
2017-11-01T05:50:00.052Z,7.8
2017-11-01T05:51:02.013Z,7.9
2017-11-01T05:52:04.032Z,7.8
2017-11-01T05:53:05.903Z,7.9
2017-11-01T05:54:08.316Z,7.9
2017-11-01T05:55:10.243Z,7.8
2017-11-01T05:56:12.111Z,7.9
2017-11-01T05:57:14.038Z,7.9
2017-11-01T05:58:15.983Z,7.9
2017-11-01T05:59:18.166Z,8
2017-11-01T06:00:20.127Z,8
2017-11-01T06:01:22.090Z,7.9
2017-11-01T06:02:24.111Z,7.9
2017-11-01T06:03:26.041Z,7.9
2017-11-01T06:04:28.282Z,7.9
2017-11-01T06:05:30.178Z,7.9
2017-11-01T06:06:32.080Z,7.9
2017-11-01T06:07:34.054Z,7.9
2017-11-01T06:08:36.128Z,8
2017-11-01T06:09:38.304Z,7.9
2017-11-01T06:10:40.269Z,7.8
2017-11-01T06:11:42.160Z,7.9
2017-11-01T06:12:44.102Z,8
2017-11-01T06:13:46.045Z,7.9
2017-11-01T06:14:48.044Z,8
2017-11-01T06:15:49.977Z,8
2017-11-01T06:16:51.920Z,8
2017-11-01T06:17:53.913Z,7.9
2017-11-01T06:18:55.909Z,7.9
2017-11-01T06:19:57.917Z,7.9
2017-11-01T06:20:59.826Z,8
2017-11-01T06:22:01.672Z,7.9
2017-11-01T06:23:03.617Z,8
2017-11-01T06:24:05.561Z,8
2017-11-01T06:25:08.216Z,8
2017-11-01T06:26:10.113Z,8
2017-11-01T06:27:12.043Z,8
2017-11-01T06:28:13.947Z,8.1
2017-11-01T06:29:15.856Z,8
2017-11-01T06:30:18.154Z,8
2017-11-01T06:31:20.112Z,8.1
2017-11-01T06:32:22.037Z,8.1
2017-11-01T06:33:23.963Z,8
2017-11-01T06:34:25.994Z,8
2017-11-01T06:35:28.270Z,8
2017-11-01T06:36:30.183Z,8
2017-11-01T06:37:32.135Z,8
2017-11-01T06:38:34.129Z,8
2017-11-01T06:39:35.993Z,8
2017-11-01T06:40:38.286Z,8
2017-11-01T06:41:40.354Z,7.9
2017-11-01T06:42:42.292Z,7.9
2017-11-01T06:43:44.171Z,7.9
2017-11-01T06:44:46.060Z,8
2017-11-01T06:45:48.278Z,8
2017-11-01T06:46:50.183Z,8
2017-11-01T06:47:52.048Z,8.1
2017-11-01T06:48:53.982Z,8
2017-11-01T06:49:55.830Z,8
2017-11-01T06:50:58.139Z,8.1
2017-11-01T06:52:00.000Z,8.1
2017-11-01T06:53:01.914Z,8.1
2017-11-01T06:54:03.801Z,8.1
2017-11-01T06:55:05.723Z,8.1
2017-11-01T06:56:07.679Z,8.2
2017-11-01T06:57:09.595Z,8.2
2017-11-01T06:58:11.503Z,8.2
2017-11-01T06:59:13.511Z,8.2
2017-11-01T07:00:15.472Z,8.3
2017-11-01T07:01:17.432Z,8.3
2017-11-01T07:02:19.402Z,8.3
2017-11-01T07:03:21.308Z,8.4
2017-11-01T07:04:23.178Z,8.4
2017-11-01T07:05:25.064Z,8.4
2017-11-01T07:06:26.947Z,8.4
2017-11-01T07:07:28.909Z,8.3
2017-11-01T07:08:30.825Z,8.4
2017-11-01T07:09:32.768Z,8.4
2017-11-01T07:10:34.844Z,8.4
2017-11-01T07:11:36.758Z,8.4
2017-11-01T07:12:38.719Z,8.4
2017-11-01T07:13:40.648Z,8.5
2017-11-01T07:14:42.500Z,8.4
2017-11-01T07:15:44.377Z,8.4
2017-11-01T07:16:46.558Z,8.4
2017-11-01T07:17:48.453Z,8.4
2017-11-01T07:18:50.319Z,8.5
2017-11-01T07:19:52.192Z,8.5
2017-11-01T07:20:54.089Z,8.5
2017-11-01T07:21:56.051Z,8.5
2017-11-01T07:22:58.034Z,8.4
2017-11-01T07:23:59.997Z,8.4
2017-11-01T07:25:01.833Z,8.4
2017-11-01T07:26:03.759Z,8.4
2017-11-01T07:27:06.173Z,8.4
2017-11-01T07:28:08.081Z,8.4
2017-11-01T07:29:10.009Z,8.4
2017-11-01T07:30:11.854Z,8.4
2017-11-01T07:31:13.731Z,8.5
2017-11-01T07:32:15.768Z,8.5
2017-11-01T07:33:17.673Z,8.5
2017-11-01T07:34:19.585Z,8.6
2017-11-01T07:35:21.505Z,8.6
2017-11-01T07:36:23.436Z,8.6
2017-11-01T07:37:25.572Z,8.6
2017-11-01T07:38:27.488Z,8.5
2017-11-01T07:39:29.452Z,8.6
2017-11-01T07:40:31.572Z,8.7
2017-11-01T07:41:33.444Z,8.6
2017-11-01T07:42:35.430Z,8.6
2017-11-01T07:43:37.518Z,8.6
2017-11-01T07:44:39.476Z,8.5
2017-11-01T07:45:41.383Z,8.5
2017-11-01T07:46:43.386Z,8.4
2017-11-01T07:47:45.372Z,8.4
2017-11-01T07:48:47.247Z,8.5
2017-11-01T07:49:49.189Z,8.4
2017-11-01T07:50:51.071Z,8.5
2017-11-01T07:51:53.016Z,8.5
2017-11-01T07:52:54.951Z,8.6
2017-11-01T07:53:56.858Z,8.5
2017-11-01T07:54:58.891Z,8.6
2017-11-01T07:56:00.788Z,8.5
2017-11-01T07:57:02.756Z,8.5
2017-11-01T07:58:04.649Z,8.6
2017-11-01T07:59:06.543Z,8.7
2017-11-01T08:00:08.441Z,8.8
2017-11-01T08:01:10.380Z,8.8
2017-11-01T08:02:12.336Z,8.8
2017-11-01T08:03:14.297Z,8.7
2017-11-01T08:04:16.422Z,8.8
2017-11-01T08:05:18.402Z,8.8
2017-11-01T08:06:20.294Z,8.9
2017-11-01T08:07:22.187Z,8.9
2017-11-01T08:08:24.371Z,8.8
2017-11-01T08:09:26.315Z,8.8
2017-11-01T08:10:28.293Z,8.8
2017-11-01T08:11:30.172Z,8.9
2017-11-01T08:12:32.116Z,8.9
2017-11-01T08:13:34.118Z,8.9
2017-11-01T08:14:36.075Z,8.8
2017-11-01T08:15:38.127Z,8.8
2017-11-01T08:16:40.086Z,8.8
2017-11-01T08:17:41.964Z,8.8
2017-11-01T08:18:43.911Z,8.7
2017-11-01T08:19:45.899Z,8.8
2017-11-01T08:20:47.888Z,8.8
2017-11-01T08:21:49.765Z,8.7
2017-11-01T08:22:51.638Z,8.9
2017-11-01T08:23:53.954Z,8.8
2017-11-01T08:24:55.848Z,8.8
2017-11-01T08:25:57.828Z,8.8
2017-11-01T08:26:59.826Z,8.8
2017-11-01T08:28:01.736Z,8.8
2017-11-01T08:29:03.703Z,8.9
2017-11-01T08:30:05.651Z,8.8
2017-11-01T08:31:07.575Z,8.8
2017-11-01T08:32:09.505Z,8.8
2017-11-01T08:33:11.418Z,8.8
2017-11-01T08:34:13.663Z,8.7
2017-11-01T08:35:15.556Z,8.7
2017-11-01T08:36:17.428Z,8.8
2017-11-01T08:37:19.386Z,8.8
2017-11-01T08:38:21.325Z,8.9
2017-11-01T08:39:23.621Z,8.8
2017-11-01T08:40:25.581Z,8.8
2017-11-01T08:41:27.508Z,8.9
2017-11-01T08:42:29.458Z,8.9
2017-11-01T08:43:31.388Z,8.9
2017-11-01T08:44:33.332Z,8.9
2017-11-01T08:45:35.264Z,8.9
2017-11-01T08:46:37.241Z,8.9
2017-11-01T08:47:39.136Z,8.9
2017-11-01T08:48:41.680Z,8.9
2017-11-01T08:49:44.555Z,8.8
2017-11-01T08:50:46.534Z,8.9
2017-11-01T08:51:48.428Z,8.9
2017-11-01T08:52:50.347Z,8.9
2017-11-01T08:53:52.233Z,8.9
2017-11-01T08:54:54.246Z,9
2017-11-01T08:55:56.114Z,8.9
2017-11-01T08:56:58.032Z,8.9
2017-11-01T08:58:00.015Z,9
2017-11-01T08:59:01.909Z,9
2017-11-01T09:00:04.250Z,9
2017-11-01T09:01:06.497Z,9
2017-11-01T09:02:08.680Z,9.1
2017-11-01T09:03:10.634Z,9.1
2017-11-01T09:04:12.603Z,9
2017-11-01T09:05:14.839Z,8.9
2017-11-01T09:06:16.732Z,8.9
2017-11-01T09:07:18.652Z,8.9
2017-11-01T09:08:20.575Z,8.8
2017-11-01T09:09:22.432Z,8.8
2017-11-01T09:10:24.686Z,8.9
2017-11-01T09:11:26.650Z,8.9
2017-11-01T09:12:28.556Z,8.9
2017-11-01T09:13:30.517Z,8.9
2017-11-01T09:14:32.452Z,8.9
2017-11-01T09:15:34.374Z,8.8
2017-11-01T09:16:36.351Z,8.7
2017-11-01T09:17:38.243Z,8.8
2017-11-01T09:18:40.126Z,8.9
2017-11-01T09:19:42.021Z,8.8
2017-11-01T09:20:43.947Z,8.8
2017-11-01T09:21:45.885Z,8.8
2017-11-01T09:22:47.830Z,8.9
2017-11-01T09:23:49.942Z,9
2017-11-01T09:24:51.835Z,8.9
2017-11-01T09:25:53.804Z,8.9
2017-11-01T09:26:55.841Z,9
2017-11-01T09:27:57.738Z,9
2017-11-01T09:28:59.793Z,9
2017-11-01T09:30:02.025Z,9
2017-11-01T09:31:04.011Z,8.9
2017-11-01T09:32:06.005Z,8.9
2017-11-01T09:33:08.097Z,9
2017-11-01T09:34:10.290Z,9.1
2017-11-01T09:35:12.224Z,9.1
2017-11-01T09:36:14.436Z,9
2017-11-01T09:37:16.374Z,9.1
2017-11-01T09:38:18.351Z,9.1
2017-11-01T09:39:20.310Z,9.1
2017-11-01T09:40:22.286Z,9.1
2017-11-01T09:41:24.265Z,9.1
2017-11-01T09:42:26.221Z,9.1
2017-11-01T09:43:28.150Z,9.1
2017-11-01T09:44:30.112Z,9.2
2017-11-01T09:45:32.012Z,9.3
2017-11-01T09:46:34.490Z,9.3
2017-11-01T09:47:37.075Z,9.3
2017-11-01T09:48:38.936Z,9.2
2017-11-01T09:49:40.834Z,9.2
2017-11-01T09:50:42.712Z,9.3
2017-11-01T09:51:44.977Z,9.3
2017-11-01T09:52:46.917Z,9.3
2017-11-01T09:53:48.856Z,9.2
2017-11-01T09:54:50.987Z,9.2
2017-11-01T09:55:52.903Z,9.2
2017-11-01T09:56:55.176Z,9.2
2017-11-01T09:57:57.106Z,9.3
2017-11-01T09:58:59.115Z,9.3
2017-11-01T10:00:01.020Z,9.3
2017-11-01T10:01:03.011Z,9.2
2017-11-01T10:02:04.972Z,9.3
2017-11-01T10:03:07.646Z,9.3
2017-11-01T10:04:09.625Z,9.4
2017-11-01T10:05:11.581Z,9.3
2017-11-01T10:06:13.527Z,9.3
2017-11-01T10:07:15.660Z,9.3
2017-11-01T10:08:17.588Z,9.2
2017-11-01T10:09:19.462Z,9.2
2017-11-01T10:10:21.404Z,9.3
2017-11-01T10:11:23.394Z,9.3
2017-11-01T10:12:25.300Z,9.3
2017-11-01T10:13:27.266Z,9.4
2017-11-01T10:14:29.582Z,9.4
2017-11-01T10:15:31.567Z,9.4
2017-11-01T10:16:33.628Z,9.4
2017-11-01T10:17:35.526Z,9.4
2017-11-01T10:18:37.465Z,9.4
2017-11-01T10:19:39.479Z,9.4
2017-11-01T10:20:41.869Z,9.4
2017-11-01T10:21:43.963Z,9.3
2017-11-01T10:22:45.889Z,9.3
2017-11-01T10:23:47.839Z,9.3
2017-11-01T10:24:49.804Z,9.4
2017-11-01T10:25:51.690Z,9.4
2017-11-01T10:26:53.677Z,9.4
2017-11-01T10:27:55.606Z,9.4
2017-11-01T10:28:57.557Z,9.5
2017-11-01T10:29:59.502Z,9.5
2017-11-01T10:31:01.546Z,9.6
2017-11-01T10:32:03.515Z,9.6
2017-11-01T10:33:05.387Z,9.7
2017-11-01T10:34:07.291Z,9.7
2017-11-01T10:35:09.360Z,9.6
2017-11-01T10:36:11.235Z,9.6
2017-11-01T10:37:13.567Z,9.5
2017-11-01T10:38:16.011Z,9.5
2017-11-01T10:39:17.930Z,9.5
2017-11-01T10:40:19.846Z,9.5
2017-11-01T10:41:21.776Z,9.6
2017-11-01T10:42:23.920Z,9.6
2017-11-01T10:43:26.149Z,9.6
2017-11-01T10:44:28.173Z,9.7
2017-11-01T10:45:30.090Z,9.6
2017-11-01T10:46:32.095Z,9.6
2017-11-01T10:47:34.164Z,9.7
2017-11-01T10:48:36.355Z,9.7
2017-11-01T10:49:38.433Z,9.6
2017-11-01T10:50:40.355Z,9.7
2017-11-01T10:51:42.398Z,9.6
2017-11-01T10:52:44.386Z,9.7
2017-11-01T10:53:46.305Z,9.7
2017-11-01T10:54:48.253Z,9.7
2017-11-01T10:55:50.184Z,9.8
2017-11-01T10:56:52.138Z,9.8
2017-11-01T10:57:54.148Z,9.8
2017-11-01T10:58:56.435Z,9.8
2017-11-01T10:59:58.455Z,9.8
2017-11-01T11:01:00.428Z,9.8
2017-11-01T11:02:02.380Z,9.8
2017-11-01T11:03:04.245Z,9.9
2017-11-01T11:04:06.210Z,9.8
2017-11-01T11:05:08.063Z,9.9
2017-11-01T11:06:10.010Z,9.9
2017-11-01T11:07:11.938Z,10
2017-11-01T11:08:13.917Z,10
2017-11-01T11:09:16.927Z,10
2017-11-01T11:10:18.927Z,10
2017-11-01T11:11:20.951Z,10
2017-11-01T11:12:22.929Z,10
2017-11-01T11:13:24.891Z,9.9
2017-11-01T11:14:26.851Z,9.9
2017-11-01T11:15:28.814Z,9.9
2017-11-01T11:16:30.784Z,9.8
2017-11-01T11:17:32.831Z,9.9
2017-11-01T11:18:34.858Z,9.9
2017-11-01T11:19:36.831Z,9.8
2017-11-01T11:20:39.000Z,9.9
2017-11-01T11:21:40.936Z,9.9
2017-11-01T11:22:43.094Z,10
2017-11-01T11:23:45.021Z,10
2017-11-01T11:24:46.927Z,10.1
2017-11-01T11:25:48.868Z,10.1
2017-11-01T11:26:50.830Z,9.9
2017-11-01T11:27:52.723Z,9.9
2017-11-01T11:28:54.808Z,9.9
2017-11-01T11:29:56.794Z,9.9
2017-11-01T11:30:58.919Z,10
2017-11-01T11:32:00.823Z,10.1
2017-11-01T11:33:02.730Z,10.2
2017-11-01T11:34:04.819Z,10.3
2017-11-01T11:35:07.060Z,10.2
2017-11-01T11:36:08.998Z,10.2
2017-11-01T11:37:11.092Z,10.2
2017-11-01T11:38:13.031Z,10.3
2017-11-01T11:39:14.942Z,10.4
2017-11-01T11:40:16.916Z,10.4
2017-11-01T11:41:18.836Z,10.5
2017-11-01T11:42:20.814Z,10.4
2017-11-01T11:43:22.709Z,10.3
2017-11-01T11:44:24.620Z,10.3
2017-11-01T11:45:26.549Z,10.4
2017-11-01T11:46:28.690Z,10.4
2017-11-01T11:47:30.679Z,10.4
2017-11-01T11:48:32.600Z,10.3
2017-11-01T11:49:34.574Z,10.4
2017-11-01T11:50:36.698Z,10.4
2017-11-01T11:51:38.661Z,10.5
2017-11-01T11:52:40.598Z,10.4
2017-11-01T11:53:42.697Z,10.4
2017-11-01T11:54:44.638Z,10.4
2017-11-01T11:55:46.590Z,10.4
2017-11-01T11:56:48.636Z,10.4
2017-11-01T11:57:50.555Z,10.4
2017-11-01T11:58:52.447Z,10.4
2017-11-01T11:59:54.357Z,10.4
2017-11-01T12:00:56.255Z,10.4
2017-11-01T12:01:58.193Z,10.4
2017-11-01T12:03:00.127Z,10.5
2017-11-01T12:04:02.127Z,10.5
2017-11-01T12:05:04.158Z,10.5
2017-11-01T12:06:06.113Z,10.6
2017-11-01T12:07:08.004Z,10.6
2017-11-01T12:08:09.929Z,10.6
2017-11-01T12:09:11.901Z,10.6
2017-11-01T12:10:13.835Z,10.6
2017-11-01T12:11:15.747Z,10.6
2017-11-01T12:12:17.653Z,10.6
2017-11-01T12:13:19.582Z,10.7
2017-11-01T12:14:21.590Z,10.6
2017-11-01T12:15:23.527Z,10.6
2017-11-01T12:16:25.493Z,10.6
2017-11-01T12:17:27.482Z,10.6
2017-11-01T12:18:29.537Z,10.7
2017-11-01T12:19:31.446Z,10.6
2017-11-01T12:20:33.339Z,10.6
2017-11-01T12:21:35.308Z,10.6
2017-11-01T12:22:37.293Z,10.6
2017-11-01T12:23:39.283Z,10.6
2017-11-01T12:24:41.267Z,10.7
2017-11-01T12:25:43.188Z,10.8
2017-11-01T12:26:45.309Z,10.7
2017-11-01T12:27:47.235Z,10.9
2017-11-01T12:28:49.210Z,10.8
2017-11-01T12:29:51.261Z,10.8
2017-11-01T12:30:53.254Z,10.8
2017-11-01T12:31:55.501Z,10.7
2017-11-01T12:32:57.403Z,10.8
2017-11-01T12:33:59.558Z,10.8
2017-11-01T12:35:01.443Z,10.8
2017-11-01T12:36:03.367Z,10.9
2017-11-01T12:37:05.404Z,10.9
2017-11-01T12:38:07.339Z,10.9
2017-11-01T12:39:09.233Z,11
2017-11-01T12:40:11.134Z,11
2017-11-01T12:41:13.099Z,11
2017-11-01T12:42:15.280Z,11
2017-11-01T12:43:17.470Z,11.1
2017-11-01T12:44:19.343Z,11.1
2017-11-01T12:45:21.315Z,11.2
2017-11-01T12:46:23.270Z,11.1
2017-11-01T12:47:25.561Z,11.1
2017-11-01T12:48:27.532Z,11.2
2017-11-01T12:49:29.431Z,11.2
2017-11-01T12:50:31.586Z,11.2
2017-11-01T12:51:33.628Z,11.3
2017-11-01T12:52:35.877Z,11.3
2017-11-01T12:53:37.857Z,11.3
2017-11-01T12:54:39.908Z,11.4
2017-11-01T12:55:42.007Z,11.5
2017-11-01T12:56:44.035Z,11.5
2017-11-01T12:57:45.929Z,11.4
2017-11-01T12:58:47.876Z,11.3
2017-11-01T12:59:50.096Z,11.5
2017-11-01T13:00:52.042Z,11.6
2017-11-01T13:01:53.942Z,11.7
2017-11-01T13:02:56.056Z,11.8
2017-11-01T13:03:58.031Z,11.9
2017-11-01T13:04:59.975Z,11.7
2017-11-01T13:06:01.986Z,11.7
2017-11-01T13:07:03.934Z,11.6
2017-11-01T13:08:05.843Z,11.6
2017-11-01T13:09:07.719Z,11.7
2017-11-01T13:10:09.894Z,11.6
2017-11-01T13:11:11.890Z,11.5
2017-11-01T13:12:13.852Z,11.5
2017-11-01T13:13:15.873Z,11.4
2017-11-01T13:14:17.808Z,11.5
2017-11-01T13:15:19.789Z,11.6
2017-11-01T13:16:21.784Z,11.4
2017-11-01T13:17:23.668Z,11.3
2017-11-01T13:18:25.912Z,11.4
2017-11-01T13:19:27.888Z,11.5
2017-11-01T13:20:29.818Z,11.5
2017-11-01T13:21:31.741Z,11.5
2017-11-01T13:22:33.741Z,11.5
2017-11-01T13:23:35.680Z,11.4
2017-11-01T13:24:37.537Z,11.4
2017-11-01T13:25:39.536Z,11.4
2017-11-01T13:26:41.452Z,11.5
2017-11-01T13:27:43.438Z,11.7
2017-11-01T13:28:45.369Z,11.7
2017-11-01T13:29:47.290Z,11.9
2017-11-01T13:30:49.167Z,11.9
2017-11-01T13:31:51.156Z,12.1
2017-11-01T13:32:53.090Z,12.2
2017-11-01T13:33:55.116Z,12.2
2017-11-01T13:34:57.012Z,12.3
2017-11-01T13:35:59.023Z,12.1
2017-11-01T13:37:01.205Z,12.3
2017-11-01T13:38:03.261Z,12.2
2017-11-01T13:39:05.266Z,11.9
2017-11-01T13:40:07.190Z,12.1
2017-11-01T13:41:09.124Z,12.3
2017-11-01T13:42:11.145Z,12.4
2017-11-01T13:43:13.038Z,12.4
2017-11-01T13:44:15.336Z,12.5
2017-11-01T13:45:17.265Z,12.5
2017-11-01T13:46:19.176Z,12.2
2017-11-01T13:47:21.139Z,12.2
2017-11-01T13:48:23.172Z,12.3
2017-11-01T13:49:25.096Z,12.1
2017-11-01T13:50:27.077Z,12
2017-11-01T13:51:29.039Z,11.9
2017-11-01T13:52:30.905Z,11.9
2017-11-01T13:53:32.937Z,11.9
2017-11-01T13:54:34.991Z,11.9
2017-11-01T13:55:37.087Z,11.9
2017-11-01T13:56:39.074Z,12
2017-11-01T13:57:41.053Z,12.1
2017-11-01T13:58:43.033Z,12
2017-11-01T13:59:45.139Z,12.1
2017-11-01T14:00:47.117Z,12
2017-11-01T14:01:49.011Z,12.1
2017-11-01T14:02:50.939Z,12
2017-11-01T14:03:52.869Z,12.1
2017-11-01T14:04:54.850Z,12
2017-11-01T14:05:56.740Z,12.1
2017-11-01T14:06:58.690Z,12.2
2017-11-01T14:08:00.732Z,12.1
2017-11-01T14:09:02.622Z,12.1
2017-11-01T14:10:04.595Z,12.1
2017-11-01T14:11:06.492Z,12.1
2017-11-01T14:12:08.432Z,12
2017-11-01T14:13:10.379Z,12